Time;durP1;ratioP1;P1;durP2;ratioP2;P2;SDS_P1;SDS_P2;PMS_P1;PMS_P2;Temp;Humidity;BMP_temperature;BMP_pressure;BME280_temperature;BME280_humidity;BME280_pressure;Samples;Min_cycle;Max_cycle;Signal;HPM_P1;HPM_P2
2023/04/21 00:00:52;;;;;;;9.63;6.18;;;7.50;99.90;;;;;;5057364;28;20045;-49
2023/04/21 00:03:22;;;;;;;9.98;6.30;;;7.50;99.90;;;;;;5061851;28;20505;-50
2023/04/21 00:05:49;;;;;;;8.55;6.03;;;7.40;99.90;;;;;;5058788;28;20045;-47
2023/04/21 00:08:17;;;;;;;12.00;6.93;;;7.50;99.90;;;;;;5052768;28;20041;-47
2023/04/21 00:10:45;;;;;;;10.65;6.50;;;7.50;99.90;;;;;;5053228;28;20136;-48
2023/04/21 00:13:12;;;;;;;11.30;6.90;;;7.50;99.90;;;;;;5047395;28;20469;-51
2023/04/21 00:15:39;;;;;;;10.02;6.57;;;7.60;99.90;;;;;;5052891;28;20053;-49
2023/04/21 00:18:06;;;;;;;11.57;6.47;;;7.60;99.90;;;;;;5053014;28;20044;-48
2023/04/21 00:20:33;;;;;;;12.50;6.57;;;7.50;99.90;;;;;;5047949;28;20037;-47
2023/04/21 00:23:00;;;;;;;11.68;7.50;;;7.50;99.90;;;;;;5053637;28;20068;-50
2023/04/21 00:25:27;;;;;;;14.35;7.53;;;7.50;99.90;;;;;;5053568;28;20041;-48
2023/04/21 00:27:54;;;;;;;12.00;6.57;;;7.60;99.90;;;;;;5052182;28;20065;-47
2023/04/21 00:30:21;;;;;;;10.80;6.63;;;7.60;99.90;;;;;;5048062;28;20045;-47
2023/04/21 00:32:48;;;;;;;12.18;6.50;;;7.60;99.90;;;;;;5050890;28;20099;-49
2023/04/21 00:35:15;;;;;;;13.23;7.30;;;7.70;99.90;;;;;;5052496;28;20464;-50
2023/04/21 00:37:41;;;;;;;13.20;7.00;;;7.70;99.90;;;;;;5052184;28;20041;-48
2023/04/21 00:40:10;;;;;;;13.48;6.75;;;7.60;99.90;;;;;;5050931;28;20449;-47
2023/04/21 00:42:39;;;;;;;10.23;5.55;;;7.60;99.90;;;;;;5035253;28;20044;-49
2023/04/21 00:45:06;;;;;;;8.35;5.13;;;7.50;99.90;;;;;;5051946;28;20037;-47
2023/04/21 00:47:33;;;;;;;12.45;6.35;;;7.50;99.90;;;;;;5052677;28;20091;-49
2023/04/21 00:50:00;;;;;;;8.18;5.90;;;7.50;99.90;;;;;;5050904;28;20079;-52
2023/04/21 00:52:28;;;;;;;16.13;6.25;;;7.50;99.90;;;;;;5051400;28;20063;-49
2023/04/21 00:54:55;;;;;;;;;;;7.50;99.90;;;;;;5053173;28;20142;-47
2023/04/21 00:57:22;;;;;;;8.48;5.57;;;7.50;99.90;;;;;;5051796;28;19920;-47
2023/04/21 00:59:50;;;;;;;12.45;6.22;;;7.40;99.90;;;;;;5045885;28;20045;-48
2023/04/21 01:02:17;;;;;;;8.30;6.00;;;7.40;99.90;;;;;;5052679;28;20091;-49
2023/04/21 01:04:46;;;;;;;10.90;6.20;;;7.40;99.90;;;;;;5050610;28;20037;-49
2023/04/21 01:07:13;;;;;;;10.75;5.90;;;7.40;99.90;;;;;;5052982;28;20041;-48
2023/04/21 01:09:40;;;;;;;11.80;6.40;;;7.50;99.90;;;;;;5051760;28;20045;-47
2023/04/21 01:12:11;;;;;;;10.30;6.35;;;7.50;99.90;;;;;;5052649;28;20069;-49
2023/04/21 01:14:39;;;;;;;8.75;6.18;;;7.50;99.90;;;;;;5035212;28;20045;-47
2023/04/21 01:17:06;;;;;;;10.68;6.72;;;7.50;99.90;;;;;;5050482;28;20048;-47
2023/04/21 01:19:40;;;;;;;10.40;6.25;;;7.50;99.90;;;;;;5050794;28;20164;-46
2023/04/21 01:22:11;;;;;;;10.18;5.63;;;7.50;99.90;;;;;;5050592;28;20060;-48
2023/04/21 01:24:40;;;;;;;10.68;5.75;;;7.50;99.90;;;;;;5050990;28;20083;-47
2023/04/21 01:27:11;;;;;;;7.63;5.93;;;7.50;99.90;;;;;;5051336;28;20041;-48
2023/04/21 01:29:39;;;;;;;9.38;5.78;;;7.00;99.90;;;;;;5050035;28;20045;-47
2023/04/21 01:32:11;;;;;;;8.05;5.80;;;7.50;99.90;;;;;;5034709;28;20409;-47
2023/04/21 01:34:39;;;;;;;9.30;5.65;;;7.40;99.90;;;;;;5059391;28;20041;-47
2023/04/21 01:37:08;;;;;;;8.02;5.40;;;7.40;99.90;;;;;;5056665;28;20094;-49
2023/04/21 01:39:39;;;;;;;7.70;4.68;;;7.40;99.90;;;;;;5043367;28;20045;-48
2023/04/21 01:42:06;;;;;;;6.32;4.82;;;7.40;99.90;;;;;;5034354;28;20056;-47
2023/04/21 01:44:35;;;;;;;9.98;5.10;;;7.40;99.90;;;;;;5050919;28;20033;-47
2023/04/21 01:47:02;;;;;;;8.63;5.00;;;7.30;99.90;;;;;;5050668;28;20413;-48
2023/04/21 01:49:29;;;;;;;8.27;4.40;;;7.40;99.90;;;;;;5050321;28;20083;-47
2023/04/21 01:51:56;;;;;;;8.32;5.70;;;7.40;99.90;;;;;;5050151;28;20087;-48
2023/04/21 01:54:23;;;;;;;8.52;5.43;;;7.40;99.90;;;;;;5044658;28;20501;-47
2023/04/21 01:56:51;;;;;;;10.02;5.90;;;7.40;99.90;;;;;;5050542;28;20053;-48
2023/04/21 01:59:19;;;;;;;11.55;5.95;;;7.30;99.90;;;;;;5023488;28;20549;-48
2023/04/21 02:01:46;;;;;;;8.98;5.68;;;7.30;99.90;;;;;;5045994;28;20095;-47
2023/04/21 02:04:13;;;;;;;5.50;3.63;;;7.30;99.90;;;;;;5033505;28;20044;-47
2023/04/21 02:06:40;;;;;;;10.85;5.70;;;7.30;99.90;;;;;;5034142;28;20036;-47
2023/04/21 02:09:07;;;;;;;10.30;5.15;;;7.30;99.90;;;;;;5049782;28;20033;-47
2023/04/21 02:11:33;;;;;;;8.50;5.07;;;7.40;99.90;;;;;;5051585;28;20420;-47
2023/04/21 02:14:00;;;;;;;10.07;4.68;;;7.40;99.90;;;;;;5027058;28;20056;-49
2023/04/21 02:16:27;;;;;;;10.05;4.82;;;7.40;99.90;;;;;;5050126;28;20049;-49
2023/04/21 02:19:02;;;;;;;6.50;4.40;;;7.30;99.90;;;;;;5032528;28;20144;-48
2023/04/21 02:21:29;;;;;;;7.15;4.60;;;7.30;99.90;;;;;;5051240;28;20048;-48
2023/04/21 02:23:56;;;;;;;10.25;6.20;;;7.30;99.90;;;;;;5048255;28;20379;-48
2023/04/21 02:26:25;;;;;;;6.82;4.13;;;7.30;99.90;;;;;;5049287;28;20033;-47
2023/04/21 02:28:52;;;;;;;9.30;5.07;;;7.30;99.90;;;;;;5028004;28;20498;-48
2023/04/21 02:31:18;;;;;;;19.63;11.15;;;7.20;99.90;;;;;;5050647;28;20480;-47
2023/04/21 02:33:47;;;;;;;22.60;12.60;;;7.20;99.90;;;;;;5032320;28;20048;-47
2023/04/21 02:36:14;;;;;;;29.30;15.10;;;7.20;99.90;;;;;;5049709;28;20090;-47
2023/04/21 02:38:40;;;;;;;28.60;15.95;;;7.20;99.90;;;;;;5039031;28;20037;-48
2023/04/21 02:41:09;;;;;;;27.55;15.30;;;7.20;99.90;;;;;;5050099;28;20462;-48
2023/04/21 02:43:36;;;;;;;28.15;16.30;;;7.20;99.90;;;;;;5050833;28;20440;-47
2023/04/21 02:46:06;;;;;;;26.65;15.75;;;7.20;99.90;;;;;;5049989;28;20091;-47
2023/04/21 02:48:36;;;;;;;26.05;15.50;;;7.20;99.90;;;;;;5049664;28;20032;-46
2023/04/21 02:51:04;;;;;;;30.08;15.75;;;7.20;99.90;;;;;;5049537;28;20048;-47
2023/04/21 02:53:31;;;;;;;29.45;15.93;;;7.20;99.90;;;;;;5033289;28;20048;-47
2023/04/21 02:56:01;;;;;;;26.08;15.23;;;7.20;99.90;;;;;;5050116;28;20497;-48
2023/04/21 02:58:29;;;;;;;28.90;15.55;;;7.20;99.90;;;;;;5048223;28;20460;-49
2023/04/21 03:00:56;;;;;;;29.13;16.27;;;7.20;99.90;;;;;;5049055;28;20041;-47
2023/04/21 03:03:23;;;;;;;30.58;15.38;;;7.20;99.90;;;;;;5049268;28;20045;-49
2023/04/21 03:05:56;;;;;;;28.83;15.43;;;7.20;99.90;;;;;;5048339;28;20064;-48
2023/04/21 03:08:22;;;;;;;31.30;15.40;;;7.10;99.90;;;;;;5049122;28;20429;-47
2023/04/21 03:10:49;;;;;;;27.40;15.02;;;7.10;99.90;;;;;;5033087;28;20053;-47
2023/04/21 03:13:16;;;;;;;30.77;14.65;;;7.10;99.90;;;;;;5037285;28;20049;-49
2023/04/21 03:15:43;;;;;;;29.38;15.65;;;7.10;99.90;;;;;;5031567;28;20083;-49
2023/04/21 03:18:35;;;;;;;;;;;7.10;99.90;;;;;;5054687;28;20457;-88
2023/04/21 03:21:02;;;;;;;27.90;16.10;;;7.10;99.90;;;;;;5056491;28;19920;-48
2023/04/21 03:23:29;;;;;;;32.63;16.90;;;7.10;99.90;;;;;;5055605;28;20054;-49
2023/04/21 03:25:56;;;;;;;31.92;16.23;;;7.10;99.90;;;;;;5069166;28;20041;-48
2023/04/21 03:28:22;;;;;;;29.13;13.95;;;7.10;99.90;;;;;;5073069;28;20549;-49
2023/04/21 03:30:50;;;;;;;27.85;15.40;;;7.10;99.90;;;;;;5050761;28;20042;-49
2023/04/21 03:33:17;;;;;;;28.40;15.13;;;7.10;99.90;;;;;;5054539;28;20107;-48
2023/04/21 03:35:44;;;;;;;26.20;15.20;;;7.10;99.90;;;;;;5048493;28;20045;-48
2023/04/21 03:38:10;;;;;;;26.05;15.65;;;7.10;99.90;;;;;;5034404;28;20493;-49
2023/04/21 03:40:37;;;;;;;35.50;15.85;;;7.10;99.90;;;;;;5050508;28;20045;-48
2023/04/21 03:43:04;;;;;;;;;;;7.10;99.90;;;;;;5046078;28;20049;-49
2023/04/21 03:45:34;;;;;;;27.27;14.73;;;7.20;99.90;;;;;;5043236;28;19921;-48
2023/04/21 03:48:02;;;;;;;30.63;14.68;;;7.20;99.90;;;;;;5050049;28;20297;-48
2023/04/21 03:50:29;;;;;;;28.20;14.70;;;7.20;99.90;;;;;;5051219;28;20075;-49
2023/04/21 03:52:56;;;;;;;19.40;10.10;;;7.20;99.90;;;;;;5054139;28;20138;-48
2023/04/21 03:55:22;;;;;;;14.07;6.38;;;7.20;99.90;;;;;;5054003;28;20049;-48
2023/04/21 03:57:49;;;;;;;11.85;6.97;;;7.20;99.90;;;;;;5047644;28;20041;-48
2023/04/21 04:00:16;;;;;;;13.85;8.18;;;7.20;99.90;;;;;;5047874;28;20424;-48
2023/04/21 04:02:44;;;;;;;17.17;7.65;;;7.20;99.90;;;;;;5053876;28;20544;-49
2023/04/21 04:05:11;;;;;;;17.83;8.45;;;7.20;99.90;;;;;;5056464;28;20052;-48
2023/04/21 04:07:38;;;;;;;12.60;7.78;;;7.20;99.90;;;;;;5065820;28;20497;-48
2023/04/21 04:10:04;;;;;;;14.13;6.20;;;7.20;99.90;;;;;;5073717;28;20045;-48
2023/04/21 04:12:31;;;;;;;12.77;7.07;;;7.20;99.90;;;;;;5074118;28;20045;-49
2023/04/21 04:14:58;;;;;;;11.02;6.68;;;7.10;99.90;;;;;;5066244;28;20522;-48
2023/04/21 04:17:25;;;;;;;16.27;7.78;;;7.10;99.90;;;;;;5065657;28;20047;-48
2023/04/21 04:19:51;;;;;;;12.60;6.90;;;7.20;99.90;;;;;;5073684;28;20047;-49
2023/04/21 04:22:18;;;;;;;11.70;7.40;;;7.10;99.90;;;;;;5037368;28;20045;-49
2023/04/21 04:24:46;;;;;;;15.30;8.27;;;7.10;99.90;;;;;;5050200;28;20033;-49
2023/04/21 04:27:13;;;;;;;15.80;8.98;;;7.10;99.90;;;;;;5065524;28;20106;-48
2023/04/21 04:29:40;;;;;;;18.23;10.48;;;7.10;99.90;;;;;;5073644;28;20455;-48
2023/04/21 04:32:09;;;;;;;25.33;13.02;;;7.10;99.90;;;;;;5070912;28;20107;-49
2023/04/21 04:34:37;;;;;;;23.08;12.02;;;7.10;99.90;;;;;;5065272;28;20040;-48
2023/04/21 04:37:05;;;;;;;19.85;12.35;;;7.10;99.90;;;;;;5074000;28;20051;-48
2023/04/21 04:39:32;;;;;;;25.55;14.35;;;7.10;99.90;;;;;;5068683;28;20053;-48
2023/04/21 04:42:00;;;;;;;26.48;13.82;;;7.10;99.90;;;;;;5062822;28;20041;-49
2023/04/21 04:44:26;;;;;;;27.35;14.23;;;7.20;99.90;;;;;;5073511;28;20037;-50
2023/04/21 04:46:53;;;;;;;24.15;14.05;;;7.20;99.90;;;;;;5073735;28;20110;-49
2023/04/21 04:49:20;;;;;;;32.08;15.82;;;7.30;99.90;;;;;;5058820;28;20099;-48
2023/04/21 04:51:49;;;;;;;25.98;14.45;;;7.30;99.90;;;;;;5064577;28;20512;-48
2023/04/21 04:54:16;;;;;;;30.20;15.85;;;7.40;99.90;;;;;;5073103;28;20045;-47
2023/04/21 04:56:43;;;;;;;;;;;7.40;99.90;;;;;;5073528;28;20059;-48
2023/04/21 04:59:10;;;;;;;28.38;16.23;;;7.50;99.90;;;;;;5066574;28;19963;-48
2023/04/21 05:01:38;;;;;;;28.77;16.27;;;7.50;99.90;;;;;;5064813;28;20028;-48
2023/04/21 05:04:05;;;;;;;27.58;15.68;;;7.60;99.90;;;;;;5072937;28;20385;-51
2023/04/21 05:06:32;;;;;;;27.85;15.75;;;7.70;99.90;;;;;;5066098;28;20032;-49
2023/04/21 05:08:59;;;;;;;27.52;15.32;;;7.70;99.90;;;;;;5049778;28;20121;-48
2023/04/21 05:11:26;;;;;;;21.52;13.00;;;7.70;99.90;;;;;;5072253;28;20048;-47
2023/04/21 05:13:53;;;;;;;28.98;15.50;;;7.80;99.90;;;;;;5072944;28;20071;-48
2023/04/21 05:16:19;;;;;;;25.17;14.10;;;7.90;99.90;;;;;;5059892;28;20041;-46
2023/04/21 05:18:49;;;;;;;24.17;14.15;;;7.90;99.90;;;;;;5062672;28;20047;-48
2023/04/21 05:21:28;;;;;;;23.88;13.80;;;8.00;99.90;;;;;;5070254;28;20580;-48
2023/04/21 05:23:57;;;;;;;22.77;13.00;;;8.10;99.90;;;;;;5073085;28;20040;-48
2023/04/21 05:26:26;;;;;;;23.48;14.45;;;8.10;99.90;;;;;;5062265;28;20072;-49
2023/04/21 05:28:55;;;;;;;25.70;13.48;;;8.10;99.90;;;;;;5069066;28;20032;-49
2023/04/21 05:31:24;;;;;;;24.13;13.38;;;8.20;99.90;;;;;;5072865;28;20114;-49
2023/04/21 05:33:51;;;;;;;22.80;13.50;;;8.30;99.90;;;;;;5066162;28;20052;-48
2023/04/21 05:36:23;;;;;;;24.23;13.43;;;8.30;99.90;;;;;;5056390;28;20043;-49
2023/04/21 05:38:51;;;;;;;25.77;14.63;;;8.40;99.90;;;;;;5072193;28;20044;-48
2023/04/21 05:41:18;;;;;;;25.40;14.80;;;8.40;99.90;;;;;;5064329;28;20044;-48
2023/04/21 05:43:46;;;;;;;25.45;12.75;;;8.50;99.90;;;;;;5054296;28;20457;-49
2023/04/21 05:46:13;;;;;;;27.33;13.35;;;8.50;99.90;;;;;;5072289;28;20138;-51
2023/04/21 05:48:40;;;;;;;29.10;13.57;;;8.60;99.90;;;;;;5071916;28;20052;-48
2023/04/21 05:51:16;;;;;;;20.80;12.68;;;8.60;99.90;;;;;;5063144;28;20045;-48
2023/04/21 05:53:44;;;;;;;21.67;13.00;;;8.70;99.90;;;;;;5067736;28;20052;-48
2023/04/21 05:56:12;;;;;;;27.27;14.02;;;8.60;99.90;;;;;;5072251;28;20041;-48
2023/04/21 05:58:40;;;;;;;23.83;13.52;;;8.70;99.90;;;;;;5064207;28;20033;-48
2023/04/21 06:01:07;;;;;;;22.58;12.88;;;8.70;99.90;;;;;;5063868;28;20044;-48
2023/04/21 06:03:34;;;;;;;22.95;12.68;;;8.80;99.90;;;;;;5071942;28;20425;-48
2023/04/21 06:06:03;;;;;;;21.67;12.82;;;8.90;99.90;;;;;;5072168;28;20119;-49
2023/04/21 06:08:30;;;;;;;22.55;13.38;;;8.80;99.90;;;;;;5062168;28;20090;-49
2023/04/21 06:10:57;;;;;;;22.13;13.95;;;8.80;99.90;;;;;;5063054;28;20489;-49
2023/04/21 06:13:23;;;;;;;23.55;13.98;;;8.80;99.90;;;;;;5071819;28;20068;-49
2023/04/21 06:15:51;;;;;;;26.33;15.18;;;8.90;99.90;;;;;;5068231;28;20594;-48
2023/04/21 06:18:17;;;;;;;;;;;9.00;99.90;;;;;;5037552;28;20044;-48
2023/04/21 06:20:51;;;;;;;27.95;15.45;;;9.00;99.90;;;;;;5071855;28;19955;-48
2023/04/21 06:23:19;;;;;;;25.52;14.80;;;9.20;99.90;;;;;;5071641;28;20076;-49
2023/04/21 06:25:46;;;;;;;26.10;14.18;;;9.30;99.90;;;;;;5066805;28;20040;-49
2023/04/21 06:28:13;;;;;;;26.20;15.10;;;9.30;99.90;;;;;;5063023;28;20101;-49
2023/04/21 06:30:39;;;;;;;20.90;13.48;;;9.40;99.90;;;;;;5071511;28;20081;-48
2023/04/21 06:33:06;;;;;;;23.00;14.13;;;9.50;99.90;;;;;;5068316;28;20490;-48
2023/04/21 06:35:33;;;;;;;21.17;13.35;;;9.50;99.90;;;;;;5063140;28;20549;-48
2023/04/21 06:38:00;;;;;;;21.25;13.05;;;9.60;99.90;;;;;;5071480;28;20575;-48
2023/04/21 06:40:27;;;;;;;25.00;14.05;;;9.50;99.90;;;;;;5071027;28;20105;-49
2023/04/21 06:42:53;;;;;;;20.33;13.32;;;9.60;99.90;;;;;;5067460;28;20516;-48
2023/04/21 06:45:20;;;;;;;25.48;15.40;;;9.70;99.90;;;;;;5062892;28;20040;-48
2023/04/21 06:47:47;;;;;;;23.75;14.38;;;9.70;99.90;;;;;;5070957;28;20044;-48
2023/04/21 06:50:14;;;;;;;24.02;13.10;;;9.90;99.90;;;;;;5071054;28;20055;-49
2023/04/21 06:52:40;;;;;;;26.73;15.48;;;10.10;99.90;;;;;;5064920;28;20447;-48
2023/04/21 06:55:07;;;;;;;25.20;15.32;;;10.20;99.90;;;;;;5062929;28;20036;-48
2023/04/21 06:57:34;;;;;;;22.25;14.63;;;10.30;99.90;;;;;;5071524;28;20048;-48
2023/04/21 07:00:01;;;;;;;31.38;16.63;;;10.40;99.90;;;;;;5070655;28;20036;-48
2023/04/21 07:02:28;;;;;;;22.20;12.98;;;10.50;99.90;;;;;;5061482;28;20091;-48
2023/04/21 07:04:55;;;;;;;23.52;13.82;;;10.60;99.90;;;;;;5068041;28;20511;-49
2023/04/21 07:07:21;;;;;;;27.20;15.55;;;10.50;99.90;;;;;;5071303;28;20052;-48
2023/04/21 07:09:48;;;;;;;26.70;15.43;;;10.60;99.90;;;;;;5064158;28;20111;-48
2023/04/21 07:12:15;;;;;;;25.05;14.68;;;10.70;99.90;;;;;;5062534;28;20554;-48
2023/04/21 07:14:41;;;;;;;25.15;14.25;;;10.80;99.90;;;;;;5071131;28;20094;-48
2023/04/21 07:17:08;;;;;;;25.27;14.02;;;10.80;99.90;;;;;;5071318;28;20048;-47
2023/04/21 07:19:35;;;;;;;23.25;13.05;;;10.80;99.90;;;;;;5060719;28;20103;-49
2023/04/21 07:22:02;;;;;;;22.83;13.60;;;10.70;99.90;;;;;;5069954;28;20053;-48
2023/04/21 07:24:29;;;;;;;23.05;13.57;;;10.70;99.90;;;;;;5070978;28;20111;-50
2023/04/21 07:26:56;;;;;;;25.60;13.82;;;10.60;99.90;;;;;;5067946;28;20095;-48
2023/04/21 07:29:22;;;;;;;25.67;13.55;;;10.60;99.90;;;;;;5061890;28;20131;-48
2023/04/21 07:31:50;;;;;;;21.90;13.50;;;10.60;99.90;;;;;;5071149;28;20045;-48
2023/04/21 07:34:17;;;;;;;20.88;12.77;;;10.80;99.90;;;;;;5071028;28;20049;-49
2023/04/21 07:36:44;;;;;;;24.73;13.55;;;10.90;99.90;;;;;;5060096;28;20060;-48
2023/04/21 07:39:11;;;;;;;21.13;13.52;;;10.90;99.90;;;;;;5069549;28;20044;-49
2023/04/21 07:41:37;;;;;;;21.38;11.73;;;11.00;99.90;;;;;;5071008;28;20106;-48
2023/04/21 07:44:04;;;;;;;18.20;10.88;;;11.00;99.90;;;;;;5068564;28;20647;-47
2023/04/21 07:46:31;;;;;;;17.58;11.00;;;11.10;99.90;;;;;;5062613;28;20067;-48
2023/04/21 07:48:58;;;;;;;19.58;10.88;;;11.20;99.90;;;;;;5069279;28;20083;-50
2023/04/21 07:51:28;;;;;;;16.55;10.77;;;11.20;99.90;;;;;;5069696;28;20048;-48
2023/04/21 07:53:55;;;;;;;18.13;10.57;;;11.20;99.90;;;;;;5068023;28;20082;-48
2023/04/21 07:56:22;;;;;;;15.05;9.75;;;11.40;99.90;;;;;;5062291;28;20040;-48
2023/04/21 07:58:48;;;;;;;15.18;9.13;;;11.30;99.90;;;;;;5073696;28;20083;-47
2023/04/21 08:01:15;;;;;;;17.52;9.63;;;11.50;99.90;;;;;;5074566;28;20746;-48
2023/04/21 08:03:42;;;;;;;17.15;9.50;;;11.70;99.90;;;;;;5069055;28;20563;-48
2023/04/21 08:06:09;;;;;;;12.00;7.60;;;11.70;99.90;;;;;;5065758;28;20044;-48
2023/04/21 08:08:36;;;;;;;13.57;8.48;;;11.90;99.90;;;;;;5074124;28;20477;-47
2023/04/21 08:11:03;;;;;;;15.98;8.95;;;12.00;99.90;;;;;;5074241;28;20448;-48
2023/04/21 08:13:31;;;;;;;12.57;8.52;;;12.20;99.90;;;;;;5066146;28;20040;-48
2023/04/21 08:15:57;;;;;;;13.80;8.43;;;12.40;99.90;;;;;;5065582;28;20532;-48
2023/04/21 08:18:24;;;;;;;12.02;7.68;;;12.60;99.90;;;;;;5073679;28;20040;-47
2023/04/21 08:20:51;;;;;;;14.20;8.43;;;12.80;99.90;;;;;;5074155;28;20102;-48
2023/04/21 08:23:18;;;;;;;12.77;7.68;;;13.00;99.90;;;;;;5064428;28;20382;-48
2023/04/21 08:25:45;;;;;;;11.07;6.93;;;13.00;99.90;;;;;;5065587;28;20032;-48
2023/04/21 08:28:14;;;;;;;10.52;6.63;;;12.90;99.90;;;;;;5073487;28;20139;-48
2023/04/21 08:30:41;;;;;;;12.82;6.60;;;13.00;99.90;;;;;;5073879;28;20044;-48
2023/04/21 08:33:12;;;;;;;11.25;7.20;;;13.10;99.90;;;;;;5062379;28;20113;-48
2023/04/21 08:35:40;;;;;;;10.73;7.07;;;13.00;99.90;;;;;;5068582;28;20052;-47
2023/04/21 08:38:26;;;;;;;12.52;6.95;;;12.90;99.90;;;;;;5073702;28;20123;-47
2023/04/21 08:40:54;;;;;;;10.65;7.47;;;12.80;99.90;;;;;;5068622;28;20044;-49
2023/04/21 08:43:21;;;;;;;16.67;8.45;;;12.80;99.90;;;;;;5065850;28;20052;-48
2023/04/21 08:45:48;;;;;;;6.97;5.28;;;12.90;99.90;;;;;;5073668;28;20048;-48
2023/04/21 08:48:18;;;;;;;7.70;5.25;;;12.80;99.90;;;;;;5073321;28;20040;-49
2023/04/21 08:50:48;;;;;;;7.57;5.05;;;12.60;99.90;;;;;;5062372;28;20044;-49
2023/04/21 08:53:15;;;;;;;7.13;5.10;;;12.60;99.90;;;;;;5073273;28;20036;-48
2023/04/21 08:55:42;;;;;;;7.78;5.10;;;12.70;99.90;;;;;;5073349;28;20409;-50
2023/04/21 08:58:09;;;;;;;9.98;6.50;;;12.80;99.90;;;;;;5064041;28;20532;-48
2023/04/21 09:00:37;;;;;;;8.85;6.07;;;12.90;99.90;;;;;;5067612;28;20044;-46
2023/04/21 09:03:06;;;;;;;;;;;13.20;99.90;;;;;;5073890;28;20052;-48
2023/04/21 09:06:08;;;;;;;12.35;6.55;;;13.40;99.90;;;;;;5069209;28;19921;-48
2023/04/21 09:08:40;;;;;;;8.05;5.47;;;13.70;99.90;;;;;;5060523;28;20037;-48
2023/04/21 09:11:07;;;;;;;11.25;6.97;;;13.60;99.90;;;;;;5053212;28;20159;-48
2023/04/21 09:13:35;;;;;;;10.93;6.28;;;13.70;99.90;;;;;;5053137;28;20099;-48
2023/04/21 09:16:04;;;;;;;10.73;5.85;;;13.50;99.90;;;;;;5053607;28;20065;-49
2023/04/21 09:18:38;;;;;;;8.60;5.80;;;13.40;99.90;;;;;;5064079;28;20063;-45
2023/04/21 09:21:08;;;;;;;8.98;5.93;;;13.50;99.90;;;;;;5122408;22;20048;-46
2023/04/21 09:23:51;;;;;;;8.77;6.15;;;13.30;99.90;;;;;;5101139;28;20081;-48
2023/04/21 09:26:21;;;;;;;9.90;5.13;;;13.30;99.90;;;;;;5102266;28;20036;-46
2023/04/21 09:28:50;;;;;;;7.55;5.30;;;13.40;99.90;;;;;;5092292;28;20062;-46
2023/04/21 09:31:19;;;;;;;8.23;5.35;;;13.80;99.90;;;;;;5092904;28;20044;-49
2023/04/21 09:33:55;;;;;;;6.70;4.60;;;14.00;99.90;;;;;;5100498;28;20043;-47
2023/04/21 09:36:28;;;;;;;9.00;5.28;;;13.90;99.90;;;;;;5105838;28;20495;-48
2023/04/21 09:39:03;;;;;;;8.77;5.82;;;13.70;99.90;;;;;;5112544;28;20050;-47
2023/04/21 09:41:32;;;;;;;8.55;5.35;;;13.80;99.90;;;;;;5105373;28;20088;-46
2023/04/21 09:44:03;;;;;;;9.85;5.28;;;13.80;99.90;;;;;;5086209;28;20827;-47
2023/04/21 09:46:35;;;;;;;8.70;5.25;;;13.80;99.90;;;;;;5112858;28;20042;-46
2023/04/21 09:49:03;;;;;;;7.40;4.75;;;14.00;99.90;;;;;;5112694;28;20661;-47
2023/04/21 09:51:31;;;;;;;7.65;4.80;;;14.20;99.90;;;;;;5105691;28;20070;-48
2023/04/21 09:54:11;;;;;;;6.05;4.47;;;14.30;99.90;;;;;;5110575;28;20082;-47
2023/04/21 09:56:58;;;;;;;7.03;4.65;;;14.60;99.90;;;;;;5112638;28;20052;-46
2023/04/21 09:59:29;;;;;;;7.15;4.15;;;14.90;99.90;;;;;;5103757;28;20123;-47
2023/04/21 10:01:57;;;;;;;5.53;4.30;;;15.20;99.90;;;;;;5104220;28;20047;-47
2023/04/21 10:04:24;;;;;;;6.70;4.30;;;15.40;99.90;;;;;;5112762;28;20048;-46
2023/04/21 10:06:52;;;;;;;5.15;3.88;;;15.90;99.90;;;;;;5109693;28;20047;-46
2023/04/21 10:09:24;;;;;;;6.60;4.22;;;15.80;99.90;;;;;;5103414;28;20036;-48
2023/04/21 10:11:52;;;;;;;5.93;4.18;;;15.70;99.90;;;;;;5112464;28;20047;-47
2023/04/21 10:14:19;;;;;;;6.70;3.55;;;15.80;99.90;;;;;;5112565;28;20093;-47
2023/04/21 10:17:06;;;;;;;;;;;16.00;99.90;;;;;;5112039;28;20172;-47
2023/04/21 10:19:38;;;;;;;8.43;4.35;;;16.00;99.90;;;;;;5105290;28;19924;-46
2023/04/21 10:22:07;;;;;;;6.10;4.47;;;16.30;99.90;;;;;;5111575;28;20142;-47
2023/04/21 10:24:41;;;;;;;7.55;4.43;;;16.50;99.90;;;;;;5110688;28;20085;-46
2023/04/21 10:27:33;;;;;;;11.68;3.92;;;16.70;99.90;;;;;;5102378;28;20105;-47
2023/04/21 10:30:00;;;;;;;6.60;4.03;;;16.80;99.90;;;;;;5111780;28;20067;-47
2023/04/21 10:32:40;;;;;;;;;;;16.90;99.90;;;;;;5112351;28;20140;-47
2023/04/21 10:35:09;;;;;;;8.45;3.90;;;17.00;99.90;;;;;;5106293;28;19924;-47
2023/04/21 10:37:36;;;;;;;6.50;3.85;;;17.00;99.90;;;;;;5103487;28;20040;-48
2023/04/21 10:40:08;;;;;;;4.78;3.50;;;16.80;99.90;;;;;;5111702;28;20043;-47
2023/04/21 10:42:35;;;;;;;4.85;3.25;;;16.50;99.90;;;;;;5111947;28;20051;-48
2023/04/21 10:45:08;;;;;;;6.00;3.42;;;16.30;99.90;;;;;;5105497;28;20048;-48
2023/04/21 10:47:37;;;;;;;6.90;3.58;;;16.20;99.90;;;;;;5103258;28;20046;-48
2023/04/21 10:50:30;;;;;;;6.47;3.45;;;16.00;99.90;;;;;;5111572;28;20043;-47
2023/04/21 10:53:08;;;;;;;5.20;3.40;;;16.10;99.90;;;;;;5109213;28;20056;-47
2023/04/21 10:55:36;;;;;;;5.85;3.58;;;16.20;99.90;;;;;;5103682;28;20039;-49
2023/04/21 10:58:04;;;;;;;;;;;16.10;99.90;;;;;;5103746;28;20457;-47
2023/04/21 11:00:31;;;;;;;11.50;3.88;;;16.30;99.90;;;;;;5111616;28;19920;-46
2023/04/21 11:02:59;;;;;;;;;;;16.30;99.90;;;;;;5105801;28;20051;-47
2023/04/21 11:05:47;;;;;;;4.50;2.83;;;16.50;99.90;;;;;;5103235;28;19924;-46
2023/04/21 11:08:14;;;;;;;5.22;3.20;;;16.60;99.90;;;;;;5105262;28;20101;-47
2023/04/21 11:10:49;;;;;;;;;;;16.80;99.90;;;;;;5082496;28;20132;-47
2023/04/21 11:13:16;;;;;;;5.40;3.08;;;17.00;99.90;;;;;;5106230;28;19966;-47
2023/04/21 11:15:55;;;;;;;5.05;3.47;;;17.20;99.90;;;;;;5103393;28;20105;-47
2023/04/21 11:18:32;;;;;;;3.70;3.10;;;17.50;99.90;;;;;;5099493;28;20040;-50
2023/04/21 11:21:20;;;;;;;5.55;2.70;;;17.80;99.90;;;;;;5102443;28;20093;-46
2023/04/21 11:23:52;;;;;;;3.80;2.97;;;18.10;99.90;;;;;;5105439;28;20043;-49
2023/04/21 11:26:37;;;;;;;4.45;2.90;;;18.20;99.90;;;;;;5102145;28;20039;-50
2023/04/21 11:29:05;;;;;;;4.03;2.50;;;18.30;99.90;;;;;;5103887;28;20048;-50
2023/04/21 11:31:33;;;;;;;4.00;2.53;;;18.30;99.90;;;;;;5086345;28;20047;-47
2023/04/21 11:34:01;;;;;;;2.13;1.92;;;18.20;99.90;;;;;;5105679;28;20078;-47
2023/04/21 11:36:28;;;;;;;2.83;1.85;;;18.10;99.90;;;;;;5107288;28;20073;-47
2023/04/21 11:38:55;;;;;;;2.88;1.92;;;18.40;99.90;;;;;;5108379;28;20035;-50
2023/04/21 11:41:23;;;;;;;1.45;1.30;;;18.40;99.60;;;;;;5105873;28;20039;-48
2023/04/21 11:43:50;;;;;;;1.90;1.73;;;18.50;99.70;;;;;;5104946;28;20032;-49
2023/04/21 11:46:22;;;;;;;2.00;1.67;;;18.70;99.10;;;;;;5110208;28;20495;-48
2023/04/21 11:49:10;;;;;;;3.35;1.70;;;18.80;98.50;;;;;;5105261;28;20365;-49
2023/04/21 11:51:39;;;;;;;1.40;1.30;;;18.70;97.90;;;;;;5105828;28;20063;-47
2023/04/21 11:54:10;;;;;;;1.88;1.67;;;18.70;97.50;;;;;;5104597;28;20039;-50
2023/04/21 11:56:46;;;;;;;2.28;1.70;;;18.70;97.70;;;;;;5105588;28;20036;-49
2023/04/21 11:59:14;;;;;;;1.83;1.38;;;18.70;99.20;;;;;;5105140;28;20047;-47
2023/04/21 12:01:45;;;;;;;1.08;0.90;;;18.70;97.50;;;;;;5105495;28;20128;-48
2023/04/21 12:04:17;;;;;;;1.02;0.93;;;18.80;94.80;;;;;;5107099;28;20079;-48
2023/04/21 12:06:45;;;;;;;2.90;1.10;;;18.80;93.60;;;;;;5094743;28;20050;-48
2023/04/21 12:09:20;;;;;;;1.45;0.90;;;18.80;93.90;;;;;;5094101;28;20036;-48
2023/04/21 12:11:56;;;;;;;1.15;0.60;;;18.90;93.90;;;;;;5106614;28;20046;-47
2023/04/21 12:14:25;;;;;;;0.80;0.80;;;18.90;91.70;;;;;;5094996;28;20041;-48
2023/04/21 12:16:54;;;;;;;2.38;1.10;;;18.90;92.00;;;;;;5094481;28;20684;-46
2023/04/21 12:19:40;;;;;;;1.17;0.90;;;19.00;92.00;;;;;;5101792;28;20142;-49
2023/04/21 12:22:17;;;;;;;1.00;0.88;;;19.20;94.10;;;;;;5113329;28;20051;-49
2023/04/21 12:24:44;;;;;;;1.25;1.15;;;19.40;92.90;;;;;;5115001;28;20048;-47
2023/04/21 12:27:11;;;;;;;0.98;0.88;;;19.70;91.40;;;;;;5104770;28;20067;-46
2023/04/21 12:29:38;;;;;;;1.17;0.80;;;19.70;91.60;;;;;;5108680;28;20036;-47
2023/04/21 12:32:06;;;;;;;4.95;1.17;;;20.00;88.30;;;;;;5114524;28;20441;-47
2023/04/21 12:34:33;;;;;;;1.00;0.93;;;20.00;91.30;;;;;;5114437;28;20050;-47
2023/04/21 12:37:00;;;;;;;;;;;20.10;89.80;;;;;;5104842;28;20560;-51
2023/04/21 12:39:27;;;;;;;0.63;0.63;;;20.10;88.40;;;;;;5106742;28;19919;-49
2023/04/21 12:41:55;;;;;;;3.53;1.00;;;19.90;84.00;;;;;;5114395;28;20416;-47
2023/04/21 12:44:21;;;;;;;1.02;1.00;;;19.90;86.70;;;;;;5109152;28;20040;-49
2023/04/21 12:46:48;;;;;;;1.00;0.90;;;19.90;86.00;;;;;;5102161;28;20542;-48
2023/04/21 12:49:16;;;;;;;2.40;0.80;;;20.00;90.20;;;;;;5113174;28;20043;-47
2023/04/21 12:51:43;;;;;;;2.50;0.80;;;20.10;84.50;;;;;;5114119;28;20039;-48
2023/04/21 12:54:11;;;;;;;1.20;0.70;;;20.10;82.20;;;;;;5107658;28;20071;-47